Time;durP1;ratioP1;P1;durP2;ratioP2;P2;SDS_P1;SDS_P2;PMS_P1;PMS_P2;Temp;Humidity;BMP_temperature;BMP_pressure;BME280_temperature;BME280_humidity;BME280_pressure;Samples;Min_cycle;Max_cycle;Signal;HPM_P1;HPM_P2
2021/08/24 00:00:05;;;;;;;3.00;2.70;;;24.40;65.40;;;;;;4970234;28;88021;-14
2021/08/24 00:02:30;;;;;;;3.75;2.70;;;24.40;65.40;;;;;;4970655;28;88011;-14
2021/08/24 00:04:56;;;;;;;3.78;3.08;;;24.40;65.40;;;;;;4970220;28;88138;-12
2021/08/24 00:07:22;;;;;;;3.90;3.08;;;24.40;65.50;;;;;;4969474;28;87818;-12
2021/08/24 00:09:48;;;;;;;3.10;2.80;;;24.40;65.50;;;;;;4968671;28;87894;-12
2021/08/24 00:12:14;;;;;;;3.63;3.08;;;24.40;65.50;;;;;;4972289;28;87837;-10
2021/08/24 00:14:39;;;;;;;3.20;2.70;;;24.40;65.50;;;;;;4972695;28;87904;-17
2021/08/24 00:17:05;;;;;;;2.70;2.50;;;24.40;65.50;;;;;;4972951;28;88033;-12
2021/08/24 00:19:31;;;;;;;3.40;2.90;;;24.40;65.50;;;;;;4972564;28;88997;-11
2021/08/24 00:21:57;;;;;;;3.45;3.15;;;24.40;65.50;;;;;;4973259;28;88982;-14
2021/08/24 00:24:23;;;;;;;2.80;2.47;;;24.40;65.50;;;;;;4970920;28;88296;-16
2021/08/24 00:26:48;;;;;;;2.63;2.42;;;24.40;65.60;;;;;;4970607;28;90477;-11
2021/08/24 00:29:14;;;;;;;3.13;2.55;;;24.40;65.60;;;;;;4971591;28;89462;-11
2021/08/24 00:31:39;;;;;;;2.67;2.40;;;24.40;65.60;;;;;;4971883;28;90974;-11
2021/08/24 00:34:05;;;;;;;3.65;2.97;;;24.30;65.50;;;;;;4973474;28;87153;-11
2021/08/24 00:36:32;;;;;;;3.45;2.80;;;24.40;65.60;;;;;;4973798;28;88142;-10
2021/08/24 00:38:59;;;;;;;2.95;2.65;;;24.30;65.60;;;;;;4972810;28;87768;-17
2021/08/24 00:41:25;;;;;;;3.55;2.53;;;24.30;65.60;;;;;;4971812;28;88161;-11
2021/08/24 00:43:51;;;;;;;3.20;2.90;;;24.40;65.70;;;;;;4970608;28;88203;-10
2021/08/24 00:46:32;;;;;;;3.95;3.17;;;24.30;65.60;;;;;;4972031;28;87795;-10
2021/08/24 00:49:00;;;;;;;2.97;2.67;;;24.30;65.60;;;;;;4971810;28;88110;-10
2021/08/24 00:51:29;;;;;;;2.90;2.60;;;24.30;65.60;;;;;;4970950;28;89125;-10
2021/08/24 00:53:55;;;;;;;4.82;2.92;;;24.30;65.60;;;;;;4973224;28;87589;-11
2021/08/24 00:56:22;;;;;;;3.22;2.50;;;24.30;65.60;;;;;;4972290;28;87678;-11
2021/08/24 00:58:47;;;;;;;3.05;2.50;;;24.30;65.60;;;;;;4971961;28;88208;-14
2021/08/24 01:01:13;;;;;;;3.42;2.80;;;24.30;65.60;;;;;;4972900;28;88505;-12
2021/08/24 01:03:42;;;;;;;3.85;2.90;;;24.30;65.60;;;;;;4970729;28;87838;-13
2021/08/24 01:06:27;;;;;;;2.97;2.60;;;24.30;65.60;;;;;;4970308;28;89184;-10
2021/08/24 01:09:17;;;;;;;3.72;2.80;;;24.30;65.70;;;;;;4969498;28;90463;-14
2021/08/24 01:12:07;;;;;;;2.80;2.45;;;24.30;65.60;;;;;;4969872;28;91463;-17
2021/08/24 01:15:03;;;;;;;3.10;2.80;;;24.30;65.70;;;;;;4971306;28;87881;-10
2021/08/24 01:17:36;;;;;;;3.08;2.67;;;24.30;65.70;;;;;;4970271;28;90654;-12
2021/08/24 01:20:19;;;;;;;2.90;2.60;;;24.30;65.80;;;;;;4972664;28;88731;-14
2021/08/24 01:23:20;;;;;;;2.53;2.33;;;24.30;65.70;;;;;;4971389;28;88244;-11
2021/08/24 01:26:01;;;;;;;3.22;2.90;;;24.30;65.70;;;;;;4970279;28;87387;-11
2021/08/24 01:28:35;;;;;;;2.80;2.58;;;24.30;65.80;;;;;;4971156;28;88038;-11
2021/08/24 01:31:22;;;;;;;4.00;3.33;;;24.30;65.80;;;;;;4971055;28;89732;-11
2021/08/24 01:33:56;;;;;;;2.95;2.50;;;24.20;65.70;;;;;;4969808;28;91246;-16
2021/08/24 01:36:31;;;;;;;3.33;3.00;;;24.20;65.80;;;;;;4971037;28;89054;-11
2021/08/24 01:39:22;;;;;;;3.70;2.70;;;24.20;65.80;;;;;;4970627;28;89837;-13
2021/08/24 01:41:54;;;;;;;3.55;2.53;;;24.20;65.80;;;;;;4971926;28;87604;-14
2021/08/24 01:44:22;;;;;;;3.28;2.72;;;24.30;65.90;;;;;;4971489;28;88164;-14
2021/08/24 01:46:53;;;;;;;3.67;2.70;;;24.20;65.80;;;;;;4971387;28;87785;-11
2021/08/24 01:49:23;;;;;;;3.22;2.80;;;24.20;65.80;;;;;;4970593;28;88456;-14
2021/08/24 01:51:53;;;;;;;3.22;2.47;;;24.20;65.90;;;;;;4971098;28;89508;-13
2021/08/24 01:54:24;;;;;;;2.97;2.78;;;24.20;65.90;;;;;;4971552;28;88475;-12
2021/08/24 01:56:52;;;;;;;2.67;2.47;;;24.20;65.80;;;;;;4971722;28;87561;-12
2021/08/24 01:59:30;;;;;;;3.00;2.70;;;24.20;65.90;;;;;;4971049;28;88057;-12
2021/08/24 02:02:08;;;;;;;3.13;2.65;;;24.20;65.90;;;;;;4969870;28;89214;-12
2021/08/24 02:04:41;;;;;;;3.30;2.47;;;24.20;65.90;;;;;;4971014;28;88965;-10
2021/08/24 02:07:09;;;;;;;2.83;2.63;;;24.20;65.90;;;;;;4970207;28;87820;-10
2021/08/24 02:09:41;;;;;;;3.10;2.85;;;24.20;65.90;;;;;;4971823;28;87909;-11
2021/08/24 02:12:09;;;;;;;3.55;2.75;;;24.20;66.00;;;;;;4971342;28;88104;-12
2021/08/24 02:14:37;;;;;;;2.88;2.67;;;24.20;66.00;;;;;;4971090;28;88206;-16
2021/08/24 02:17:05;;;;;;;4.10;2.90;;;24.20;66.00;;;;;;4971576;28;87546;-15
2021/08/24 02:19:37;;;;;;;2.97;2.67;;;24.20;65.90;;;;;;4971299;28;87390;-16
2021/08/24 02:22:17;;;;;;;3.40;2.80;;;24.20;66.00;;;;;;4970690;28;88269;-11
2021/08/24 02:24:49;;;;;;;3.08;2.78;;;24.20;66.00;;;;;;4970284;28;91084;-11
2021/08/24 02:27:20;;;;;;;3.23;2.80;;;24.20;66.00;;;;;;4971565;28;88849;-11
2021/08/24 02:29:46;;;;;;;2.83;2.50;;;24.20;66.00;;;;;;4970324;28;87482;-11
2021/08/24 02:32:19;;;;;;;3.20;2.72;;;24.20;66.00;;;;;;4968349;28;89602;-13
2021/08/24 02:34:51;;;;;;;;;;;24.20;66.00;;;;;;4970464;28;88870;-12
2021/08/24 02:37:18;;;;;;;2.50;2.30;;;24.10;66.00;;;;;;4972675;28;88032;-15
2021/08/24 02:39:55;;;;;;;3.15;2.78;;;24.10;66.00;;;;;;4971240;28;88074;-14
2021/08/24 02:42:36;;;;;;;2.70;2.50;;;24.10;65.90;;;;;;4970858;28;87945;-10
2021/08/24 02:45:09;;;;;;;2.67;2.47;;;24.10;66.00;;;;;;4971549;28;87742;-13
2021/08/24 02:47:37;;;;;;;2.85;2.55;;;24.10;66.00;;;;;;4970282;28;87922;-10
2021/08/24 02:50:05;;;;;;;2.58;2.38;;;24.10;66.00;;;;;;4969385;28;90206;-14
2021/08/24 02:52:34;;;;;;;3.60;2.80;;;24.10;66.10;;;;;;4970236;28;93033;-13
2021/08/24 02:55:01;;;;;;;2.83;2.60;;;24.10;66.10;;;;;;4971235;28;88349;-15
2021/08/24 02:57:27;;;;;;;2.88;2.58;;;24.10;66.10;;;;;;5000012;23;87808;-12
2021/08/24 02:59:52;;;;;;;3.00;2.70;;;24.10;66.70;;;;;;4971036;28;88181;-15
2021/08/24 03:02:18;;;;;;;2.90;2.55;;;24.10;66.20;;;;;;4969837;28;88168;-11
2021/08/24 03:04:45;;;;;;;2.80;2.50;;;24.10;66.20;;;;;;4967156;28;89242;-11
2021/08/24 03:07:18;;;;;;;3.03;2.60;;;24.10;66.70;;;;;;4970551;28;88379;-18
2021/08/24 03:09:46;;;;;;;2.65;2.17;;;24.10;66.20;;;;;;4971383;28;86755;-13
2021/08/24 03:12:34;;;;;;;3.00;2.70;;;24.10;66.20;;;;;;4971183;28;87694;-11
2021/08/24 03:15:38;;;;;;;3.58;2.70;;;24.10;66.20;;;;;;4971034;28;88196;-12
2021/08/24 03:18:29;;;;;;;2.80;2.45;;;24.00;66.20;;;;;;4970368;28;88579;-12
2021/08/24 03:20:57;;;;;;;3.17;2.83;;;24.00;66.20;;;;;;4969058;28;88017;-13
2021/08/24 03:23:26;;;;;;;2.20;2.00;;;24.00;66.20;;;;;;4970398;28;88380;-15
2021/08/24 03:25:53;;;;;;;2.33;2.13;;;24.00;66.20;;;;;;4970595;28;91020;-11
2021/08/24 03:28:22;;;;;;;2.78;2.47;;;24.10;66.30;;;;;;4970664;28;87461;-12
2021/08/24 03:30:49;;;;;;;3.15;2.85;;;24.10;66.30;;;;;;4969119;28;88025;-14
2021/08/24 03:33:15;;;;;;;2.40;2.20;;;24.00;66.20;;;;;;4969301;28;89049;-11
2021/08/24 03:35:41;;;;;;;2.60;2.40;;;24.00;66.20;;;;;;4970610;28;87816;-16
2021/08/24 03:38:07;;;;;;;2.60;2.40;;;24.00;66.20;;;;;;4970854;28;87613;-14
2021/08/24 03:40:33;;;;;;;2.50;2.30;;;24.00;66.20;;;;;;4970693;28;87106;-12
2021/08/24 03:42:59;;;;;;;2.90;2.60;;;24.10;66.30;;;;;;4969949;28;89167;-11
2021/08/24 03:45:25;;;;;;;2.58;2.38;;;24.00;66.30;;;;;;4970968;28;88307;-11
2021/08/24 03:47:51;;;;;;;3.00;2.75;;;24.00;66.30;;;;;;4974701;28;87139;-17
2021/08/24 03:50:17;;;;;;;2.88;2.55;;;24.00;66.30;;;;;;4974055;28;88097;-14
2021/08/24 03:52:43;;;;;;;3.00;2.65;;;23.90;66.20;;;;;;4973393;28;87941;-12
2021/08/24 03:55:09;;;;;;;2.63;2.42;;;24.00;66.30;;;;;;4972948;28;88356;-15
2021/08/24 03:57:35;;;;;;;2.78;2.45;;;24.00;66.30;;;;;;4972692;28;88121;-13
2021/08/24 04:00:02;;;;;;;2.47;2.20;;;24.00;66.30;;;;;;4971996;28;90172;-14
2021/08/24 04:02:28;;;;;;;2.97;2.60;;;24.00;66.80;;;;;;4973247;28;88188;-12
2021/08/24 04:04:54;;;;;;;2.97;2.50;;;24.00;66.40;;;;;;4973612;28;88088;-12
2021/08/24 04:07:19;;;;;;;2.25;2.05;;;24.00;66.30;;;;;;4973542;28;88588;-12
2021/08/24 04:09:45;;;;;;;2.83;2.20;;;23.90;66.30;;;;;;4973360;28;88052;-13
2021/08/24 04:12:11;;;;;;;2.50;2.28;;;23.90;66.30;;;;;;4972860;28;88055;-11
2021/08/24 04:14:41;;;;;;;2.38;2.17;;;24.00;66.40;;;;;;4973832;28;88342;-11
2021/08/24 04:17:07;;;;;;;2.70;2.30;;;23.90;66.80;;;;;;4973551;28;87790;-10
2021/08/24 04:19:33;;;;;;;2.65;2.25;;;24.00;66.30;;;;;;4973143;28;87878;-14
2021/08/24 04:21:58;;;;;;;3.05;2.45;;;23.90;66.30;;;;;;4973236;28;88605;-12
2021/08/24 04:24:24;;;;;;;2.95;2.50;;;23.90;66.30;;;;;;4973941;28;87500;-11
2021/08/24 04:26:50;;;;;;;2.33;2.13;;;23.90;66.40;;;;;;4973270;28;88213;-12
2021/08/24 04:29:15;;;;;;;2.50;2.22;;;23.90;66.40;;;;;;4971426;28;90419;-11
2021/08/24 04:31:41;;;;;;;3.00;2.40;;;23.90;66.40;;;;;;4971961;28;89528;-11
2021/08/24 04:34:07;;;;;;;2.20;2.00;;;23.90;66.40;;;;;;4973315;28;88243;-12
2021/08/24 04:36:33;;;;;;;2.88;2.50;;;23.90;66.40;;;;;;4973063;28;87546;-14
2021/08/24 04:38:58;;;;;;;2.75;2.30;;;23.90;66.40;;;;;;4972391;28;87650;-13
2021/08/24 04:41:26;;;;;;;2.35;2.15;;;23.90;66.40;;;;;;4971803;28;88747;-12
2021/08/24 04:43:52;;;;;;;2.63;2.08;;;23.90;66.30;;;;;;4972934;28;87464;-12
2021/08/24 04:46:18;;;;;;;2.15;1.95;;;23.90;66.40;;;;;;4973130;28;88264;-15
2021/08/24 04:48:43;;;;;;;2.40;2.20;;;23.90;66.40;;;;;;4972394;28;87376;-12
2021/08/24 04:51:09;;;;;;;2.13;1.92;;;23.90;66.40;;;;;;4972203;28;88712;-14
2021/08/24 04:53:34;;;;;;;2.50;2.30;;;23.90;66.40;;;;;;4973011;28;87948;-11
2021/08/24 04:56:00;;;;;;;2.53;2.33;;;23.90;66.50;;;;;;4972040;28;89013;-13
2021/08/24 04:58:26;;;;;;;2.42;2.22;;;23.90;66.60;;;;;;4970691;28;87543;-16
2021/08/24 05:00:51;;;;;;;2.53;2.33;;;23.90;66.60;;;;;;4972128;28;87548;-11
2021/08/24 05:03:17;;;;;;;3.25;2.60;;;23.90;66.70;;;;;;4972187;28;88263;-15
2021/08/24 05:05:42;;;;;;;2.15;1.95;;;23.90;66.70;;;;;;4973007;28;88197;-11
2021/08/24 05:08:08;;;;;;;3.40;2.50;;;23.90;66.70;;;;;;4973023;28;88113;-15
2021/08/24 05:10:35;;;;;;;5.53;2.80;;;23.90;66.60;;;;;;4972074;28;88473;-16
2021/08/24 05:13:02;;;;;;;3.17;2.40;;;23.90;66.60;;;;;;4972151;28;88555;-11
2021/08/24 05:15:28;;;;;;;3.88;2.42;;;23.90;66.60;;;;;;4973224;28;87890;-16
2021/08/24 05:17:54;;;;;;;3.25;2.50;;;23.90;66.60;;;;;;4972756;28;87760;-11
2021/08/24 05:20:20;;;;;;;2.63;2.40;;;23.90;66.60;;;;;;4972041;28;88927;-12
2021/08/24 05:22:46;;;;;;;2.30;2.10;;;23.90;66.50;;;;;;4972856;28;88626;-11
2021/08/24 05:25:16;;;;;;;2.72;2.45;;;23.90;66.50;;;;;;4972998;28;87259;-12
2021/08/24 05:27:41;;;;;;;2.70;2.50;;;23.90;66.50;;;;;;4972514;28;87832;-12
2021/08/24 05:30:11;;;;;;;5.22;2.35;;;23.90;66.50;;;;;;4972165;28;87950;-11
2021/08/24 05:32:36;;;;;;;2.70;2.25;;;23.90;66.50;;;;;;4972214;28;87501;-14
2021/08/24 05:35:02;;;;;;;2.38;2.13;;;23.90;66.50;;;;;;4972503;28;88184;-11
2021/08/24 05:37:28;;;;;;;3.15;1.95;;;23.90;66.50;;;;;;4972813;28;86873;-15
2021/08/24 05:39:53;;;;;;;7.45;3.35;;;24.00;66.50;;;;;;4972472;28;88514;-13
2021/08/24 05:42:19;;;;;;;32.00;8.45;;;24.00;66.30;;;;;;4970507;28;91270;-15
2021/08/24 05:44:44;;;;;;;26.23;7.18;;;23.90;65.10;;;;;;4971967;28;88359;-15
2021/08/24 05:47:11;;;;;;;23.80;6.18;;;24.00;64.50;;;;;;4971781;28;87651;-12
2021/08/24 05:49:36;;;;;;;15.40;4.97;;;23.90;64.50;;;;;;4971489;28;88517;-12
2021/08/24 05:52:03;;;;;;;17.25;5.90;;;24.00;65.00;;;;;;4971106;28;88010;-11
2021/08/24 05:54:28;;;;;;;18.23;5.32;;;24.00;65.40;;;;;;4971276;28;87139;-11
2021/08/24 05:56:54;;;;;;;13.82;4.97;;;24.10;65.30;;;;;;4969131;28;88450;-12
2021/08/24 05:59:20;;;;;;;21.25;6.05;;;24.10;65.30;;;;;;4971087;28;88007;-12
2021/08/24 06:01:46;;;;;;;14.65;5.10;;;24.10;65.20;;;;;;4971115;28;86803;-11
2021/08/24 06:04:12;;;;;;;14.50;5.55;;;24.10;65.20;;;;;;4971650;28;87156;-14
2021/08/24 06:06:40;;;;;;;22.45;5.75;;;24.10;65.30;;;;;;4970906;28;88227;-13
2021/08/24 06:09:10;;;;;;;15.50;5.78;;;24.10;63.30;;;;;;4963917;28;89327;-18
2021/08/24 06:11:40;;;;;;;22.33;5.70;;;24.10;64.60;;;;;;4969430;28;88903;-18
2021/08/24 06:14:06;;;;;;;22.48;5.50;;;24.10;65.10;;;;;;4970854;28;87119;-14
2021/08/24 06:16:34;;;;;;;24.70;5.57;;;24.20;64.00;;;;;;4970389;28;88013;-15
2021/08/24 06:19:00;;;;;;;18.67;5.90;;;24.10;63.30;;;;;;4970726;28;88140;-14
2021/08/24 06:21:26;;;;;;;18.58;5.63;;;24.20;62.90;;;;;;4942755;28;87667;-16
2021/08/24 06:23:52;;;;;;;17.55;5.55;;;24.20;64.70;;;;;;4968925;28;88662;-14
2021/08/24 06:26:20;;;;;;;16.50;5.30;;;24.20;65.10;;;;;;4965376;28;89818;-14
2021/08/24 06:28:46;;;;;;;19.70;5.85;;;24.20;65.00;;;;;;4968989;28;88267;-15
2021/08/24 06:31:16;;;;;;;15.88;5.18;;;24.20;65.90;;;;;;4970643;28;88260;-14
2021/08/24 06:33:42;;;;;;;19.58;6.13;;;24.20;66.00;;;;;;4968210;28;89030;-13
2021/08/24 06:36:07;;;;;;;16.67;5.55;;;24.30;66.30;;;;;;4971404;28;87508;-12
2021/08/24 06:38:33;;;;;;;14.48;4.63;;;24.30;66.70;;;;;;4971246;28;87985;-16
2021/08/24 06:41:00;;;;;;;535.10;153.93;;;24.30;66.40;;;;;;4970754;28;88279;-14
2021/08/24 06:43:26;;;;;;;321.50;88.93;;;24.30;66.30;;;;;;4969901;28;87057;-11
2021/08/24 06:45:52;;;;;;;108.40;30.42;;;24.30;66.00;;;;;;4970542;28;88371;-11
2021/08/24 06:48:18;;;;;;;82.80;25.38;;;24.30;65.70;;;;;;4970102;28;88161;-10
2021/08/24 06:50:44;;;;;;;76.03;22.15;;;24.40;65.80;;;;;;4969006;28;88066;-16
2021/08/24 06:53:10;;;;;;;83.90;21.58;;;24.40;65.80;;;;;;4969096;28;87708;-13
2021/08/24 06:55:38;;;;;;;80.38;22.75;;;24.30;65.40;;;;;;4969829;28;90771;-14
2021/08/24 06:58:06;;;;;;;76.38;21.67;;;24.40;65.40;;;;;;4969560;28;89155;-14
2021/08/24 07:00:32;;;;;;;75.10;22.45;;;24.40;65.30;;;;;;4970472;28;87753;-13
2021/08/24 07:02:58;;;;;;;66.63;20.02;;;24.40;65.30;;;;;;4970231;28;87541;-17
2021/08/24 07:05:26;;;;;;;56.78;17.02;;;24.40;65.70;;;;;;4970124;28;87492;-15
2021/08/24 07:07:52;;;;;;;69.88;19.65;;;24.50;64.50;;;;;;4969550;28;88152;-14
2021/08/24 07:10:18;;;;;;;66.78;19.85;;;24.50;64.80;;;;;;4970106;28;88038;-15
2021/08/24 07:12:44;;;;;;;66.43;18.35;;;24.50;64.90;;;;;;4970364;28;87872;-12
2021/08/24 07:15:13;;;;;;;66.07;18.05;;;24.50;64.80;;;;;;4968787;28;87098;-13
2021/08/24 07:17:39;;;;;;;55.20;16.85;;;24.50;64.80;;;;;;4968317;28;89143;-15
2021/08/24 07:20:07;;;;;;;57.67;17.17;;;24.50;64.80;;;;;;4968831;28;87908;-18
2021/08/24 07:22:33;;;;;;;47.25;16.50;;;24.60;64.60;;;;;;4969693;28;88766;-12
2021/08/24 07:25:01;;;;;;;44.72;15.32;;;24.60;64.30;;;;;;4969973;28;87991;-13
2021/08/24 07:27:26;;;;;;;49.15;15.05;;;24.60;64.10;;;;;;4969209;28;88559;-11
2021/08/24 07:29:52;;;;;;;47.65;14.18;;;24.60;63.80;;;;;;4969020;28;87873;-16
2021/08/24 07:32:18;;;;;;;43.53;14.55;;;24.60;63.60;;;;;;4968510;28;87451;-11
2021/08/24 07:34:43;;;;;;;41.65;12.85;;;24.60;63.40;;;;;;4969877;28;87622;-11
2021/08/24 07:37:09;;;;;;;42.83;14.00;;;24.60;63.10;;;;;;4970158;28;88079;-12
2021/08/24 07:39:34;;;;;;;36.20;11.00;;;24.60;62.70;;;;;;4970249;28;87932;-12
2021/08/24 07:42:00;;;;;;;39.00;11.52;;;24.60;62.40;;;;;;4969928;28;88065;-15
2021/08/24 07:44:31;;;;;;;28.10;9.73;;;24.60;62.10;;;;;;4968076;28;88705;-13
2021/08/24 07:46:57;;;;;;;28.27;9.23;;;24.60;61.90;;;;;;4967786;28;91348;-17
2021/08/24 07:49:22;;;;;;;23.60;8.90;;;24.60;61.70;;;;;;4970134;28;88508;-11
2021/08/24 07:51:48;;;;;;;26.45;8.40;;;24.60;61.40;;;;;;4969762;28;87691;-12
2021/08/24 07:54:13;;;;;;;25.73;8.90;;;24.70;61.20;;;;;;4969857;28;87791;-12
2021/08/24 07:56:39;;;;;;;16.20;7.32;;;24.60;60.80;;;;;;4968557;28;88279;-13
2021/08/24 07:59:05;;;;;;;20.60;7.55;;;24.70;60.70;;;;;;4969863;28;88171;-14
2021/08/24 08:01:31;;;;;;;18.80;7.70;;;24.70;60.60;;;;;;4968869;28;88627;-14
2021/08/24 08:03:57;;;;;;;19.98;7.55;;;24.70;60.40;;;;;;4970335;28;87665;-17
2021/08/24 08:06:23;;;;;;;17.48;6.97;;;24.70;60.30;;;;;;4969690;28;87739;-13
2021/08/24 08:08:49;;;;;;;17.85;6.22;;;24.70;60.20;;;;;;4969666;28;88163;-14
2021/08/24 08:11:15;;;;;;;18.98;5.93;;;24.70;60.80;;;;;;4969797;28;88487;-18
2021/08/24 08:13:41;;;;;;;13.52;5.32;;;24.70;60.00;;;;;;4969896;28;88128;-17
2021/08/24 08:16:07;;;;;;;14.10;5.30;;;24.70;59.80;;;;;;4968442;28;88153;-14
2021/08/24 08:18:32;;;;;;;10.75;5.03;;;24.70;59.70;;;;;;4966940;28;90837;-14
2021/08/24 08:20:58;;;;;;;21.60;5.00;;;24.80;59.50;;;;;;4969336;28;87639;-13
2021/08/24 08:23:24;;;;;;;13.52;4.75;;;24.70;59.40;;;;;;4967871;28;90528;-15
2021/08/24 08:25:50;;;;;;;11.93;4.22;;;24.70;59.40;;;;;;4969115;28;88044;-14
2021/08/24 08:28:29;;;;;;;11.68;4.78;;;24.80;59.50;;;;;;4969695;28;87664;-11
2021/08/24 08:30:55;;;;;;;11.02;4.22;;;24.80;59.50;;;;;;4968684;28;87825;-14
2021/08/24 08:33:21;;;;;;;16.42;4.85;;;24.80;59.50;;;;;;4972012;28;88497;-14
2021/08/24 08:35:46;;;;;;;12.55;4.55;;;24.80;59.50;;;;;;4971943;28;89262;-14
2021/08/24 08:38:12;;;;;;;12.48;6.13;;;24.80;59.50;;;;;;4972050;28;88718;-13
2021/08/24 08:41:12;;;;;;;11.18;5.22;;;24.70;59.40;;;;;;4973417;28;87654;-14
2021/08/24 08:43:47;;;;;;;10.90;6.55;;;24.80;59.60;;;;;;4972102;28;87769;-14
2021/08/24 08:46:30;;;;;;;14.10;6.93;;;24.70;59.50;;;;;;4972167;28;89483;-14
2021/08/24 08:49:07;;;;;;;16.17;6.05;;;24.80;59.50;;;;;;4973056;28;87689;-14
2021/08/24 08:51:39;;;;;;;9.50;5.57;;;24.70;59.40;;;;;;4973438;28;87791;-13
2021/08/24 08:54:28;;;;;;;11.20;6.00;;;24.80;59.40;;;;;;4973531;28;87243;-15
2021/08/24 08:57:07;;;;;;;10.73;5.45;;;24.80;59.40;;;;;;4970581;28;88162;-13
2021/08/24 08:59:51;;;;;;;14.73;6.20;;;24.80;59.60;;;;;;4968604;28;88922;-16
2021/08/24 09:02:30;;;;;;;;;;;24.80;59.90;;;;;;4970955;28;88639;-13
2021/08/24 09:04:56;;;;;;;11.52;4.95;;;24.70;60.00;;;;;;4972268;28;88239;-17
2021/08/24 09:07:42;;;;;;;12.85;4.75;;;24.80;59.90;;;;;;4968882;28;91899;-14
2021/08/24 09:10:49;;;;;;;7.82;4.20;;;24.80;59.80;;;;;;4969205;28;87910;-13
2021/08/24 09:13:26;;;;;;;11.15;4.15;;;24.80;59.70;;;;;;4968062;28;88487;-14
2021/08/24 09:15:57;;;;;;;10.57;3.55;;;24.80;59.60;;;;;;4966331;28;90727;-18
2021/08/24 09:18:39;;;;;;;7.88;3.40;;;24.80;59.70;;;;;;4967797;28;88289;-19
2021/08/24 09:21:10;;;;;;;6.57;3.25;;;24.80;59.80;;;;;;4968352;28;87966;-14
2021/08/24 09:23:36;;;;;;;8.80;3.47;;;24.80;59.90;;;;;;4970088;28;87704;-13
2021/08/24 09:26:15;;;;;;;5.50;2.88;;;24.80;59.90;;;;;;4971069;28;88424;-16
2021/08/24 09:28:41;;;;;;;6.50;2.72;;;24.80;59.90;;;;;;4970659;28;89107;-18
2021/08/24 09:31:15;;;;;;;5.22;2.47;;;24.80;60.10;;;;;;4971300;28;88756;-14
2021/08/24 09:33:41;;;;;;;11.40;3.17;;;24.80;60.30;;;;;;4972512;28;88341;-19
2021/08/24 09:36:06;;;;;;;7.03;2.50;;;24.80;60.30;;;;;;4972785;28;88353;-13
2021/08/24 09:38:50;;;;;;;5.93;2.72;;;24.80;60.20;;;;;;4971337;28;87664;-13
2021/08/24 09:41:29;;;;;;;7.00;2.72;;;24.80;60.10;;;;;;4971110;28;88260;-14
2021/08/24 09:43:57;;;;;;;9.68;2.50;;;24.80;60.00;;;;;;4970165;28;87170;-14
2021/08/24 09:46:37;;;;;;;7.20;2.35;;;24.80;59.80;;;;;;4970831;28;86934;-14
2021/08/24 09:49:27;;;;;;;7.75;1.98;;;24.80;60.00;;;;;;4969083;28;91026;-14
2021/08/24 09:52:04;;;;;;;8.57;2.60;;;24.80;60.20;;;;;;4971429;28;88256;-14
2021/08/24 09:54:49;;;;;;;5.80;1.90;;;24.80;60.00;;;;;;4971535;28;88731;-14
2021/08/24 09:57:25;;;;;;;4.13;1.90;;;24.90;59.90;;;;;;4971801;28;88474;-17
2021/08/24 09:59:58;;;;;;;4.03;1.90;;;24.90;59.70;;;;;;4971750;28;88273;-16
2021/08/24 10:02:43;;;;;;;7.18;1.98;;;24.80;59.60;;;;;;4971277;28;88118;-14
2021/08/24 10:05:15;;;;;;;4.38;2.30;;;24.80;59.60;;;;;;4972228;28;88152;-17
2021/08/24 10:07:42;;;;;;;6.47;2.05;;;24.90;59.70;;;;;;4972028;28;88196;-19
2021/08/24 10:10:32;;;;;;;7.63;2.10;;;24.80;59.70;;;;;;4970414;28;88955;-15
2021/08/24 10:13:19;;;;;;;5.35;1.92;;;24.90;59.90;;;;;;4965448;28;89158;-14
2021/08/24 10:15:48;;;;;;;5.35;1.83;;;24.90;59.80;;;;;;4969954;28;87780;-17
2021/08/24 10:18:23;;;;;;;3.35;1.55;;;24.80;59.10;;;;;;4967757;28;87693;-13
2021/08/24 10:20:52;;;;;;;5.13;1.80;;;24.90;58.80;;;;;;4966646;28;90027;-15
2021/08/24 10:23:34;;;;;;;5.82;1.70;;;24.90;58.30;;;;;;4967934;28;88258;-14
2021/08/24 10:26:27;;;;;;;4.90;1.70;;;24.90;57.30;;;;;;4967106;28;88100;-13
2021/08/24 10:28:57;;;;;;;3.70;1.50;;;24.90;57.60;;;;;;4967561;28;88067;-13
2021/08/24 10:31:39;;;;;;;2.75;1.40;;;24.90;57.40;;;;;;4967531;28;87835;-18
2021/08/24 10:34:09;;;;;;;4.47;1.25;;;24.90;57.00;;;;;;4967845;28;88413;-16
2021/08/24 10:36:46;;;;;;;4.70;1.23;;;24.90;57.10;;;;;;4966955;28;88195;-14
2021/08/24 10:39:20;;;;;;;8.27;1.40;;;24.90;56.90;;;;;;4968295;28;87443;-18
2021/08/24 10:42:00;;;;;;;3.75;1.30;;;24.80;56.70;;;;;;4966852;28;88986;-19
2021/08/24 10:44:29;;;;;;;4.18;1.60;;;24.90;56.90;;;;;;4964619;28;88108;-14
2021/08/24 10:47:05;;;;;;;7.35;1.70;;;24.90;57.10;;;;;;4969925;28;88280;-15
2021/08/24 10:49:32;;;;;;;7.97;1.50;;;24.90;57.20;;;;;;4970030;28;87411;-13
2021/08/24 10:52:23;;;;;;;2.75;1.23;;;24.90;57.00;;;;;;4971080;28;88279;-16
2021/08/24 10:54:55;;;;;;;4.88;1.38;;;24.90;57.10;;;;;;4970590;28;88891;-14
2021/08/24 10:57:23;;;;;;;4.85;1.77;;;24.90;57.10;;;;;;4971001;28;88020;-19
2021/08/24 11:00:11;;;;;;;5.15;1.30;;;24.90;56.60;;;;;;4970802;28;87429;-15
2021/08/24 11:03:06;;;;;;;5.60;1.20;;;24.90;55.70;;;;;;4970444;28;87786;-16
2021/08/24 11:05:50;;;;;;;3.60;1.50;;;24.90;55.70;;;;;;4970358;28;89355;-14
2021/08/24 11:08:39;;;;;;;5.78;1.30;;;24.90;55.90;;;;;;4970112;28;87165;-14
2021/08/24 11:11:37;;;;;;;5.03;1.30;;;24.90;55.90;;;;;;4970861;28;88397;-14
2021/08/24 11:14:29;;;;;;;2.35;1.33;;;24.90;56.10;;;;;;4969848;28;89174;-15
2021/08/24 11:17:16;;;;;;;2.97;1.17;;;24.80;56.10;;;;;;4967621;28;89049;-12
2021/08/24 11:19:53;;;;;;;4.03;1.40;;;24.80;56.40;;;;;;4969640;28;87547;-13
2021/08/24 11:22:40;;;;;;;5.95;1.35;;;24.90;56.60;;;;;;4969390;28;87430;-14
2021/08/24 11:25:22;;;;;;;3.10;1.23;;;24.90;56.20;;;;;;4969079;28;89398;-15
2021/08/24 11:28:10;;;;;;;8.27;1.50;;;24.80;56.50;;;;;;4967126;28;87955;-14
2021/08/24 11:30:49;;;;;;;6.85;1.63;;;24.90;56.20;;;;;;4970520;28;87592;-13
2021/08/24 11:33:37;;;;;;;3.22;1.30;;;24.90;56.20;;;;;;4970074;28;87492;-14
2021/08/24 11:36:26;;;;;;;15.65;2.17;;;24.80;56.90;;;;;;4969113;28;88268;-15
2021/08/24 11:39:21;;;;;;;5.10;1.17;;;24.90;57.80;;;;;;4969675;28;89464;-19
2021/08/24 11:41:50;;;;;;;10.20;1.40;;;24.90;57.30;;;;;;4966253;28;88189;-19
2021/08/24 11:44:20;;;;;;;4.47;1.25;;;24.90;57.30;;;;;;4969394;28;88339;-20
2021/08/24 11:46:54;;;;;;;8.27;1.52;;;24.90;57.30;;;;;;4969626;28;88703;-15
2021/08/24 11:50:12;;;;;;;2.78;1.30;;;24.90;57.20;;;;;;4969568;28;88064;-15
2021/08/24 11:52:59;;;;;;;7.03;1.42;;;25.00;57.00;;;;;;4960403;28;87963;-16
2021/08/24 11:55:42;;;;;;;2.83;1.48;;;24.90;57.20;;;;;;4969601;28;88085;-16
2021/08/24 11:58:24;;;;;;;5.60;1.83;;;24.90;57.30;;;;;;4968145;28;88046;-16
2021/08/24 12:00:54;;;;;;;8.90;1.60;;;24.90;57.10;;;;;;4967720;28;87788;-17
2021/08/24 12:03:21;;;;;;;8.70;1.80;;;24.90;57.30;;;;;;4966516;28;87658;-17
2021/08/24 12:06:05;;;;;;;11.32;1.48;;;25.00;57.30;;;;;;4967102;28;87845;-16
2021/08/24 12:08:41;;;;;;;6.18;1.20;;;25.10;57.30;;;;;;4970352;28;90870;-17
2021/08/24 12:11:24;;;;;;;9.02;1.80;;;25.10;57.00;;;;;;4984867;28;91919;-17
2021/08/24 12:13:56;;;;;;;8.90;1.48;;;25.30;57.20;;;;;;4970800;28;87989;-17
2021/08/24 12:16:25;;;;;;;7.65;1.92;;;25.30;56.10;;;;;;4971093;28;88232;-15
2021/08/24 12:19:03;;;;;;;7.35;1.67;;;25.30;55.90;;;;;;4985551;28;90403;-16
2021/08/24 12:22:05;;;;;;;5.50;1.95;;;25.40;55.30;;;;;;4969357;28;89477;-16
2021/08/24 12:24:51;;;;;;;8.25;1.67;;;25.50;55.30;;;;;;4970329;28;87498;-14
2021/08/24 12:27:20;;;;;;;11.68;1.95;;;25.50;55.00;;;;;;4971911;28;86972;-13
2021/08/24 12:29:51;;;;;;;5.88;1.63;;;25.60;54.90;;;;;;4971359;28;88176;-14
2021/08/24 12:32:21;;;;;;;7.90;1.80;;;25.60;54.20;;;;;;4972407;28;87393;-15
2021/08/24 12:35:04;;;;;;;7.95;2.33;;;25.60;53.50;;;;;;4971882;28;88263;-14
2021/08/24 12:37:30;;;;;;;6.10;1.90;;;25.60;53.40;;;;;;4971564;28;87553;-14
2021/08/24 12:40:21;;;;;;;11.88;2.10;;;25.70;53.70;;;;;;4971731;28;87765;-13
2021/08/24 12:43:13;;;;;;;9.27;1.77;;;25.70;53.80;;;;;;4965373;28;88327;-13
2021/08/24 12:45:39;;;;;;;4.45;1.70;;;25.70;54.00;;;;;;4971751;28;88121;-13
2021/08/24 12:48:18;;;;;;;4.60;1.60;;;25.70;54.10;;;;;;4968823;28;87863;-14
2021/08/24 12:51:04;;;;;;;21.13;2.63;;;25.70;54.10;;;;;;4970666;28;87665;-17
2021/08/24 12:53:29;;;;;;;12.40;2.35;;;25.80;54.30;;;;;;4970115;28;91231;-14
2021/08/24 12:56:00;;;;;;;12.05;2.45;;;25.70;54.70;;;;;;4969256;28;87763;-19
2021/08/24 12:58:46;;;;;;;10.32;1.83;;;25.70;54.20;;;;;;4971844;28;88237;-16
2021/08/24 13:01:25;;;;;;;12.70;2.08;;;25.70;54.10;;;;;;4970356;28;88958;-17
2021/08/24 13:04:12;;;;;;;7.90;1.90;;;25.60;55.10;;;;;;4969835;28;89794;-20
2021/08/24 13:06:40;;;;;;;13.00;2.17;;;25.60;54.90;;;;;;4972000;28;87834;-17